createdAt,value
2022-08-11T04:00:37.108Z,16.00
2022-08-11T04:01:37.102Z,12.00
2022-08-11T04:02:37.305Z,16.00
2022-08-11T04:03:37.053Z,20.00
2022-08-11T04:04:37.029Z,20.00
2022-08-11T04:05:37.018Z,24.00
2022-08-11T04:06:37.010Z,28.00
2022-08-11T04:07:36.995Z,28.00
2022-08-11T04:08:36.994Z,32.00
2022-08-11T04:09:36.972Z,36.00
2022-08-11T04:10:36.994Z,36.00
2022-08-11T04:11:41.974Z,44.00
2022-08-11T04:12:37.198Z,44.00
2022-08-11T04:13:36.946Z,52.00
2022-08-11T04:14:36.915Z,56.00
2022-08-11T04:15:36.906Z,56.00
2022-08-11T04:16:36.895Z,60.00
2022-08-11T04:17:36.883Z,68.00
2022-08-11T04:18:36.887Z,72.00
2022-08-11T04:19:36.865Z,76.00
2022-08-11T04:20:36.850Z,80.00
2022-08-11T04:21:36.842Z,88.00
2022-08-11T04:22:41.849Z,88.00
2022-08-11T04:24:34.929Z,96.00
2022-08-11T04:24:39.814Z,104.00
2022-08-11T04:25:57.616Z,108.00
2022-08-11T04:26:37.785Z,116.00
2022-08-11T04:27:39.073Z,120.00
2022-08-11T04:28:43.036Z,124.00
2022-08-11T04:30:03.547Z,132.00
2022-08-11T04:30:39.340Z,136.00
2022-08-11T04:31:51.413Z,148.00
2022-08-11T04:32:37.868Z,152.00
2022-08-11T04:33:41.746Z,156.00
2022-08-11T04:34:36.698Z,164.00
2022-08-11T04:35:36.684Z,172.00
2022-08-11T04:36:36.675Z,180.00
2022-08-11T04:37:36.663Z,184.00
2022-08-11T04:38:36.663Z,192.00
2022-08-11T04:39:36.661Z,196.00
2022-08-11T04:40:36.635Z,204.00
2022-08-11T04:41:36.621Z,212.00
2022-08-11T04:42:36.608Z,220.00
2022-08-11T04:43:36.617Z,224.00
2022-08-11T04:44:42.604Z,236.00
2022-08-11T04:45:36.575Z,240.00
2022-08-11T04:46:36.566Z,248.00
2022-08-11T04:48:01.858Z,256.00
2022-08-11T04:48:37.559Z,268.00
2022-08-11T04:49:36.563Z,272.00
2022-08-11T04:50:36.515Z,276.00
2022-08-11T04:51:36.509Z,288.00
2022-08-11T04:52:38.305Z,296.00
2022-08-11T04:53:36.486Z,300.00
2022-08-11T04:54:36.480Z,304.00
2022-08-11T04:55:41.484Z,312.00
2022-08-11T04:56:36.456Z,316.00
2022-08-11T04:57:36.439Z,324.00
2022-08-11T04:58:36.429Z,332.00
2022-08-11T04:59:36.434Z,336.00
2022-08-11T05:00:36.407Z,344.00
2022-08-11T05:01:37.602Z,352.00
2022-08-11T05:02:36.541Z,356.00
2022-08-11T05:03:36.394Z,368.00
2022-08-11T05:04:36.377Z,376.00
2022-08-11T05:05:36.353Z,384.00
2022-08-11T05:06:41.361Z,388.00
2022-08-11T05:07:36.328Z,396.00
2022-08-11T05:08:36.316Z,404.00
2022-08-11T05:09:36.317Z,408.00
2022-08-11T05:10:43.080Z,416.00
2022-08-11T05:11:37.285Z,420.00
2022-08-11T05:12:36.424Z,428.00
2022-08-11T05:13:36.265Z,436.00
2022-08-11T05:14:36.266Z,444.00
2022-08-11T05:15:42.982Z,444.00
2022-08-11T05:16:37.226Z,452.00
2022-08-11T05:17:41.252Z,456.00
2022-08-11T05:18:36.205Z,464.00
2022-08-11T05:19:36.216Z,468.00
2022-08-11T05:20:36.184Z,476.00
2022-08-11T05:21:44.676Z,480.00
2022-08-11T05:22:37.440Z,492.00
2022-08-11T05:23:36.154Z,492.00
2022-08-11T05:24:36.153Z,504.00
2022-08-11T05:26:44.509Z,512.00
2022-08-11T05:26:46.220Z,520.00
2022-08-11T05:27:37.106Z,528.00
2022-08-11T05:28:41.116Z,532.00
2022-08-11T05:29:36.094Z,536.00
2022-08-11T05:30:36.078Z,540.00
2022-08-11T05:31:36.063Z,544.00
2022-08-11T05:32:36.066Z,552.00
2022-08-11T05:33:36.040Z,568.00
2022-08-11T05:34:36.047Z,572.00
2022-08-11T05:36:02.267Z,568.00
2022-08-11T05:36:37.009Z,580.00
2022-08-11T05:37:35.997Z,592.00
2022-08-11T05:38:36.002Z,600.00
2022-08-11T05:39:41.089Z,624.00
2022-08-11T05:40:35.963Z,636.00
2022-08-11T05:41:35.949Z,648.00
2022-08-11T05:42:35.940Z,680.00
2022-08-11T05:43:35.942Z,684.00
2022-08-11T05:44:35.924Z,644.00
2022-08-11T05:46:02.832Z,632.00
2022-08-11T05:46:36.896Z,644.00
2022-08-11T05:47:35.883Z,652.00
2022-08-11T05:48:35.886Z,668.00
2022-08-11T05:49:35.877Z,680.00
2022-08-11T05:50:40.883Z,700.00
2022-08-11T05:51:35.839Z,708.00
2022-08-11T05:52:41.614Z,708.00
2022-08-11T05:53:46.106Z,700.00
2022-08-11T05:54:36.809Z,704.00
2022-08-11T05:55:35.794Z,708.00
2022-08-11T05:56:36.783Z,720.00
2022-08-11T05:57:44.048Z,728.00
2022-08-11T05:58:41.299Z,748.00
2022-08-11T05:59:36.770Z,804.00
2022-08-11T06:00:35.740Z,916.00
2022-08-11T06:01:40.807Z,1164.00
2022-08-11T06:02:35.802Z,1400.00
2022-08-11T06:03:35.705Z,1328.00
2022-08-11T06:04:35.709Z,1044.00
2022-08-11T06:05:38.362Z,968.00
2022-08-11T06:06:36.678Z,1024.00
2022-08-11T06:07:49.025Z,996.00
2022-08-11T06:08:36.652Z,948.00
2022-08-11T06:09:35.652Z,868.00
2022-08-11T06:10:35.631Z,864.00
2022-08-11T06:11:42.985Z,884.00
2022-08-11T06:12:41.931Z,932.00
2022-08-11T06:13:35.605Z,976.00
2022-08-11T06:14:35.586Z,1024.00
2022-08-11T06:15:35.572Z,1076.00
2022-08-11T06:16:35.564Z,1152.00
2022-08-11T06:17:38.638Z,1140.00
2022-08-11T06:18:35.667Z,980.00
2022-08-11T06:19:35.530Z,884.00
2022-08-11T06:20:35.519Z,884.00
2022-08-11T06:21:35.521Z,916.00
2022-08-11T06:22:35.505Z,952.00
2022-08-11T06:23:40.538Z,1108.00
2022-08-11T06:24:35.488Z,1324.00
2022-08-11T06:25:35.470Z,1208.00
2022-08-11T06:26:49.591Z,1140.00
2022-08-11T06:27:36.446Z,1208.00
2022-08-11T06:28:35.461Z,1544.00
2022-08-11T06:29:37.855Z,2048.00
2022-08-11T06:30:36.421Z,2180.00
2022-08-11T06:31:35.399Z,2152.00
2022-08-11T06:32:35.387Z,2572.00
2022-08-11T06:33:35.390Z,3092.00
2022-08-11T06:34:40.408Z,3220.00
2022-08-11T06:35:35.355Z,2504.00
2022-08-11T06:36:35.345Z,2708.00
2022-08-11T06:37:36.719Z,2588.00
2022-08-11T06:38:35.332Z,1664.00
2022-08-11T06:39:35.354Z,1268.00
2022-08-11T06:40:35.300Z,1256.00
2022-08-11T06:41:35.298Z,1324.00
2022-08-11T06:42:35.286Z,1932.00
2022-08-11T06:43:35.277Z,1956.00
2022-08-11T06:44:35.257Z,1968.00
2022-08-11T06:45:40.263Z,1836.00
2022-08-11T06:46:35.296Z,1964.00
2022-08-11T06:47:35.221Z,1804.00
2022-08-11T06:48:35.225Z,1796.00
2022-08-11T06:49:35.199Z,1792.00
2022-08-11T06:50:35.192Z,1752.00
2022-08-11T06:51:35.176Z,1620.00
2022-08-11T06:52:36.372Z,1552.00
2022-08-11T06:53:35.165Z,1552.00
2022-08-11T06:54:35.153Z,1480.00
2022-08-11T06:55:57.506Z,1396.00
2022-08-11T06:56:41.146Z,1212.00
2022-08-11T06:57:35.133Z,1224.00
2022-08-11T06:58:35.115Z,1156.00
2022-08-11T06:59:35.090Z,1196.00
2022-08-11T07:00:35.079Z,1252.00
2022-08-11T07:01:35.133Z,1288.00
2022-08-11T07:02:35.359Z,1236.00
2022-08-11T07:03:35.057Z,1204.00
2022-08-11T07:04:35.043Z,1072.00
2022-08-11T07:05:35.028Z,1060.00
2022-08-11T07:06:41.525Z,1088.00
2022-08-11T07:07:41.025Z,1192.00
2022-08-11T07:08:35.947Z,1136.00
2022-08-11T07:09:34.983Z,1052.00
2022-08-11T07:10:34.974Z,1056.00
2022-08-11T07:11:34.958Z,1076.00
2022-08-11T07:12:34.950Z,1112.00
2022-08-11T07:13:44.165Z,1156.00
2022-08-11T07:14:38.438Z,1824.00
2022-08-11T07:16:13.327Z,1684.00
2022-08-11T07:16:35.912Z,1152.00
2022-08-11T07:17:34.894Z,1116.00
2022-08-11T07:18:39.919Z,1128.00
2022-08-11T07:19:34.879Z,1136.00
2022-08-11T07:20:34.859Z,1144.00
2022-08-11T07:22:00.281Z,1136.00
2022-08-11T07:22:35.853Z,1148.00
2022-08-11T07:23:34.848Z,1144.00
2022-08-11T07:24:59.317Z,1148.00
2022-08-11T07:25:35.811Z,1160.00
2022-08-11T07:26:34.797Z,1176.00
2022-08-11T07:27:37.328Z,1212.00
2022-08-11T07:28:34.773Z,1216.00
2022-08-11T07:29:39.794Z,1200.00
2022-08-11T07:30:34.749Z,1200.00
2022-08-11T07:31:34.753Z,1204.00
2022-08-11T07:32:34.742Z,1192.00
2022-08-11T07:34:07.645Z,1208.00
2022-08-11T07:34:35.727Z,1208.00
2022-08-11T07:35:34.704Z,1420.00
2022-08-11T07:36:34.708Z,1336.00
2022-08-11T07:37:34.685Z,1224.00
2022-08-11T07:38:34.674Z,1216.00
2022-08-11T07:39:34.752Z,1236.00
2022-08-11T07:40:39.665Z,1396.00
2022-08-11T07:41:34.630Z,1348.00
2022-08-11T07:42:34.618Z,1320.00
2022-08-11T07:43:34.618Z,1568.00
2022-08-11T07:44:35.477Z,1244.00
2022-08-11T07:45:34.584Z,1236.00
2022-08-11T07:46:34.578Z,1252.00
2022-08-11T07:47:34.572Z,1244.00
2022-08-11T07:48:34.569Z,1268.00
2022-08-11T07:49:34.556Z,1292.00
2022-08-11T07:50:34.553Z,1328.00
2022-08-11T07:51:39.588Z,1296.00
2022-08-11T07:52:34.571Z,1312.00
2022-08-11T07:53:34.495Z,1328.00
2022-08-11T07:54:35.502Z,1352.00
2022-08-11T07:55:51.502Z,1380.00
2022-08-11T07:56:47.993Z,1372.00
2022-08-11T07:58:14.529Z,1540.00
2022-08-11T07:58:45.198Z,1968.00
2022-08-11T08:00:04.166Z,2140.00
2022-08-11T08:00:35.443Z,1736.00
2022-08-11T08:01:34.459Z,1572.00
2022-08-11T08:02:39.543Z,1428.00
2022-08-11T08:03:34.399Z,1428.00
2022-08-11T08:04:34.398Z,1452.00
2022-08-11T08:05:34.365Z,1552.00
2022-08-11T08:06:36.030Z,1436.00
2022-08-11T08:07:34.368Z,1456.00
2022-08-11T08:08:34.392Z,1512.00
2022-08-11T08:09:34.343Z,1524.00
2022-08-11T08:10:34.314Z,1504.00
2022-08-11T08:11:34.317Z,1876.00
2022-08-11T08:12:34.295Z,1664.00
2022-08-11T08:13:39.302Z,1600.00
2022-08-11T08:14:34.290Z,1604.00
2022-08-11T08:15:34.255Z,1600.00
2022-08-11T08:16:34.245Z,1540.00
2022-08-11T08:17:34.233Z,1576.00
2022-08-11T08:18:34.223Z,1512.00
2022-08-11T08:19:34.214Z,1544.00
2022-08-11T08:20:34.234Z,1552.00
2022-08-11T08:21:34.190Z,1548.00
2022-08-11T08:22:38.244Z,1564.00
2022-08-11T08:23:35.168Z,1580.00
2022-08-11T08:24:39.196Z,1596.00
2022-08-11T08:25:34.149Z,1592.00
2022-08-11T08:26:34.143Z,1616.00
2022-08-11T08:27:34.129Z,1612.00
2022-08-11T08:28:34.126Z,1628.00
2022-08-11T08:29:34.107Z,1652.00
2022-08-11T08:30:34.109Z,1672.00
2022-08-11T08:31:34.090Z,1680.00
2022-08-11T08:32:34.074Z,1692.00
2022-08-11T08:33:34.061Z,1708.00
2022-08-11T08:34:34.054Z,1712.00
2022-08-11T08:35:55.744Z,1732.00
2022-08-11T08:36:35.032Z,1760.00
2022-08-11T08:37:46.026Z,1804.00
2022-08-11T08:38:35.017Z,1824.00
2022-08-11T08:39:34.056Z,1812.00
2022-08-11T08:40:34.001Z,1912.00
2022-08-11T08:41:33.982Z,1820.00
2022-08-11T08:42:34.010Z,1808.00
2022-08-11T08:43:47.506Z,2232.00
2022-08-11T08:44:39.259Z,2484.00
2022-08-11T08:45:34.943Z,1756.00
2022-08-11T08:46:38.947Z,1760.00
2022-08-11T08:47:41.100Z,1868.00
2022-08-11T08:48:34.902Z,1808.00
2022-08-11T08:49:33.892Z,1964.00
2022-08-11T08:50:33.895Z,1988.00
2022-08-11T08:51:54.788Z,4568.00
2022-08-11T08:52:39.156Z,5104.00
2022-08-11T08:53:34.844Z,1888.00
2022-08-11T08:54:33.838Z,4076.00
2022-08-11T08:55:33.852Z,6128.00
2022-08-11T08:56:33.815Z,3836.00
2022-08-11T08:57:39.811Z,3548.00
2022-08-11T08:58:33.797Z,2300.00
2022-08-11T08:59:47.457Z,7944.00
2022-08-11T09:00:34.816Z,24480.00
2022-08-11T09:01:33.832Z,2896.00
2022-08-11T09:02:35.104Z,10428.00
2022-08-11T09:04:02.930Z,14428.00
2022-08-11T09:04:34.726Z,3128.00
2022-08-11T09:05:33.726Z,1896.00
2022-08-11T09:06:33.709Z,1876.00
2022-08-11T09:07:39.950Z,1864.00
2022-08-11T09:08:39.714Z,2004.00
2022-08-11T09:09:33.674Z,2344.00
2022-08-11T09:10:33.670Z,3672.00
2022-08-11T09:11:33.651Z,2496.00
2022-08-11T09:12:36.077Z,2000.00
2022-08-11T09:13:34.625Z,12772.00
2022-08-11T09:14:33.616Z,11372.00
2022-08-11T09:15:33.614Z,2112.00
2022-08-11T09:16:33.595Z,1956.00
2022-08-11T09:17:33.612Z,1972.00
2022-08-11T09:18:33.921Z,2016.00
2022-08-11T09:19:38.611Z,2056.00
2022-08-11T09:20:33.561Z,2104.00
2022-08-11T09:21:48.319Z,2132.00
2022-08-11T09:22:34.532Z,2268.00
2022-08-11T09:24:34.508Z,2484.00
2022-08-11T09:25:33.509Z,2596.00
2022-08-11T09:26:33.486Z,2724.00
2022-08-11T09:27:33.562Z,2124.00
2022-08-11T09:28:33.531Z,2416.00
2022-08-11T09:29:33.454Z,12320.00
2022-08-11T09:30:38.479Z,6468.00
2022-08-11T09:31:37.197Z,5528.00
2022-08-11T09:32:34.418Z,7136.00
2022-08-11T09:33:33.406Z,15616.00
2022-08-11T09:34:33.398Z,14184.00
2022-08-11T09:35:33.397Z,10740.00
2022-08-11T09:36:33.377Z,4384.00
2022-08-11T09:37:55.633Z,4800.00
2022-08-11T09:38:34.354Z,3340.00
2022-08-11T09:39:33.404Z,3720.00
2022-08-11T09:40:33.345Z,14656.00
2022-08-11T09:41:55.620Z,24512.00
2022-08-11T09:42:34.312Z,7820.00
2022-08-11T09:43:33.304Z,24160.00
2022-08-11T09:44:33.289Z,12708.00
2022-08-11T09:45:40.127Z,19072.00
2022-08-11T09:46:34.272Z,31712.00
2022-08-11T09:47:33.266Z,6664.00
2022-08-11T09:48:33.243Z,20640.00
2022-08-11T09:49:33.239Z,11980.00
2022-08-11T09:50:33.310Z,6344.00
2022-08-11T09:51:33.224Z,12124.00
2022-08-11T09:52:38.233Z,10628.00
2022-08-11T09:53:36.730Z,3728.00
2022-08-11T09:54:34.322Z,5168.00
2022-08-11T09:55:33.188Z,5936.00
2022-08-11T09:56:33.160Z,3848.00
2022-08-11T09:57:33.199Z,5068.00
2022-08-11T09:58:42.549Z,5536.00
2022-08-11T09:59:34.144Z,5872.00
2022-08-11T10:00:33.130Z,5668.00
2022-08-11T10:01:33.223Z,5896.00
2022-08-11T10:02:33.095Z,8632.00
2022-08-11T10:03:40.275Z,5988.00
2022-08-11T10:04:33.072Z,8756.00
2022-08-11T10:05:33.076Z,5240.00
2022-08-11T10:06:34.405Z,6836.00
2022-08-11T10:07:33.042Z,26688.00
2022-08-11T10:08:33.028Z,4916.00
2022-08-11T10:09:33.019Z,3076.00
2022-08-11T10:10:33.021Z,3564.00
2022-08-11T10:11:33.002Z,2804.00
2022-08-11T10:12:32.989Z,2396.00
2022-08-11T10:14:31.429Z,2232.00
2022-08-11T10:14:43.974Z,5812.00
2022-08-11T10:15:34.017Z,2820.00
2022-08-11T10:16:32.965Z,6544.00
2022-08-11T10:17:33.051Z,3232.00
2022-08-11T10:18:32.921Z,9676.00
2022-08-11T10:19:32.913Z,6432.00
2022-08-11T10:20:32.900Z,3068.00
2022-08-11T10:21:32.904Z,2812.00
2022-08-11T10:22:33.150Z,4480.00
2022-08-11T10:23:32.880Z,3824.00
2022-08-11T10:24:32.858Z,5748.00
2022-08-11T10:25:32.846Z,34976.00
2022-08-11T10:26:32.851Z,3344.00
2022-08-11T10:28:16.876Z,35936.00
2022-08-11T10:28:50.005Z,32512.00
2022-08-11T10:29:37.578Z,6724.00
2022-08-11T10:30:33.792Z,5908.00
2022-08-11T10:31:45.222Z,9988.00
2022-08-11T10:32:33.768Z,4564.00
2022-08-11T10:33:37.670Z,9660.00
2022-08-11T10:34:32.748Z,11012.00
2022-08-11T10:35:32.740Z,7844.00
2022-08-11T10:36:32.741Z,9048.00
2022-08-11T10:38:08.306Z,38752.00
2022-08-11T10:38:38.732Z,2312.00
2022-08-11T10:39:32.764Z,2816.00
2022-08-11T10:40:32.723Z,3308.00
2022-08-11T10:41:32.692Z,8584.00
2022-08-11T10:42:55.214Z,8152.00
2022-08-11T10:44:02.192Z,4396.00
2022-08-11T10:44:33.641Z,5176.00
2022-08-11T10:45:32.631Z,33920.00
2022-08-11T10:46:32.634Z,7936.00
2022-08-11T10:47:32.618Z,14372.00
2022-08-11T10:48:32.602Z,2344.00
2022-08-11T10:49:32.593Z,17312.00
2022-08-11T10:50:32.579Z,10600.00
2022-08-11T10:51:50.714Z,4368.00
2022-08-11T10:52:33.615Z,10032.00
2022-08-11T10:53:32.572Z,15104.00
2022-08-11T10:54:32.534Z,6688.00
2022-08-11T10:55:32.532Z,15136.00
2022-08-11T10:56:34.014Z,6004.00
2022-08-11T10:57:32.649Z,2908.00
2022-08-11T10:58:33.315Z,2984.00
2022-08-11T10:59:32.483Z,4296.00
2022-08-11T11:00:32.471Z,3356.00
2022-08-11T11:01:32.539Z,2416.00
2022-08-11T11:02:32.450Z,3480.00
2022-08-11T11:03:32.544Z,2592.00
2022-08-11T11:04:37.463Z,2360.00
2022-08-11T11:05:32.443Z,2592.00
2022-08-11T11:06:32.448Z,2548.00
2022-08-11T11:07:32.402Z,4420.00
2022-08-11T11:08:32.408Z,39456.00
2022-08-11T11:09:32.692Z,3548.00
2022-08-11T11:10:32.370Z,36224.00
2022-08-11T11:11:32.375Z,20224.00
2022-08-11T11:12:32.347Z,30752.00
2022-08-11T11:13:32.333Z,10192.00
2022-08-11T11:14:32.325Z,8368.00
2022-08-11T11:15:32.309Z,7500.00
2022-08-11T11:16:32.316Z,6440.00
2022-08-11T11:17:37.310Z,32256.00
2022-08-11T11:18:32.298Z,5020.00
2022-08-11T11:19:32.294Z,10100.00
2022-08-11T11:20:35.829Z,4048.00
2022-08-11T11:21:33.263Z,3160.00
2022-08-11T11:22:32.233Z,3584.00
2022-08-11T11:23:32.226Z,4116.00
2022-08-11T11:24:32.216Z,11476.00
2022-08-11T11:25:32.210Z,4972.00
2022-08-11T11:26:32.190Z,32800.00
2022-08-11T11:27:32.191Z,26240.00
2022-08-11T11:28:32.170Z,24576.00
2022-08-11T11:29:32.164Z,65440.00
2022-08-11T11:30:37.170Z,94400.00
2022-08-11T11:31:32.162Z,66080.00
2022-08-11T11:32:32.295Z,0.00
2022-08-11T11:33:32.125Z,19328.00
2022-08-11T11:34:32.105Z,23328.00
2022-08-11T11:35:32.117Z,0.00
2022-08-11T11:36:32.084Z,21472.00
2022-08-11T11:37:32.088Z,2656.00
2022-08-11T11:38:32.066Z,2712.00
2022-08-11T11:39:32.099Z,3980.00
2022-08-11T11:40:32.353Z,3256.00
2022-08-11T11:41:32.035Z,2628.00
2022-08-11T11:42:32.047Z,2628.00
2022-08-11T11:43:37.042Z,2612.00
2022-08-11T11:44:32.023Z,2664.00
2022-08-11T11:45:32.012Z,2716.00
2022-08-11T11:46:31.981Z,2724.00
2022-08-11T11:47:32.977Z,4976.00
2022-08-11T11:48:31.967Z,2804.00
2022-08-11T11:49:31.951Z,3140.00
2022-08-11T11:50:33.141Z,7612.00
2022-08-11T11:51:31.924Z,7244.00
2022-08-11T11:52:31.922Z,6268.00
2022-08-11T11:53:31.905Z,3180.00
2022-08-11T11:54:31.907Z,15632.00
2022-08-11T11:55:31.912Z,12276.00
2022-08-11T11:56:36.892Z,33792.00
2022-08-11T11:57:31.894Z,74976.00
2022-08-11T11:58:31.875Z,52512.00
2022-08-11T11:59:31.839Z,95904.00
2022-08-11T12:00:33.418Z,104320.00
2022-08-11T12:01:31.818Z,106400.00
2022-08-11T12:02:32.228Z,102560.00
2022-08-11T12:03:31.846Z,103264.00
2022-08-11T12:04:31.785Z,101696.00
2022-08-11T12:05:31.776Z,101376.00
2022-08-11T12:06:32.168Z,100800.00
2022-08-11T12:07:31.793Z,96320.00
2022-08-11T12:08:31.745Z,92736.00
2022-08-11T12:09:36.758Z,94912.00
2022-08-11T12:10:31.833Z,96128.00
2022-08-11T12:11:31.743Z,94080.00
2022-08-11T12:12:31.721Z,90592.00
2022-08-11T12:13:31.693Z,90016.00
2022-08-11T12:14:31.682Z,87648.00
2022-08-11T12:16:04.449Z,90880.00
2022-08-11T12:16:36.462Z,93792.00
2022-08-11T12:17:32.121Z,92640.00
2022-08-11T12:18:31.697Z,93600.00
2022-08-11T12:19:35.592Z,97248.00
2022-08-11T12:20:34.255Z,97216.00
2022-08-11T12:21:31.614Z,95136.00
2022-08-11T12:22:36.634Z,95648.00
2022-08-11T12:23:31.595Z,95360.00
2022-08-11T12:24:31.583Z,97024.00
2022-08-11T12:25:31.573Z,95712.00
2022-08-11T12:26:31.564Z,89184.00
2022-08-11T12:27:31.559Z,75232.00
2022-08-11T12:28:31.552Z,68512.00
2022-08-11T12:29:31.538Z,75584.00
2022-08-11T12:30:31.613Z,87808.00
2022-08-11T12:31:31.515Z,93376.00
2022-08-11T12:32:31.516Z,83168.00
2022-08-11T12:33:39.459Z,77024.00
2022-08-11T12:34:31.487Z,74304.00
2022-08-11T12:35:31.473Z,75424.00
2022-08-11T12:36:31.478Z,74496.00
2022-08-11T12:37:31.518Z,72576.00
2022-08-11T12:38:31.441Z,77056.00
2022-08-11T12:40:16.095Z,48064.00
2022-08-11T12:40:42.692Z,6880.00
2022-08-11T12:41:32.532Z,2804.00
2022-08-11T12:42:31.539Z,2704.00
2022-08-11T12:43:38.354Z,2504.00
2022-08-11T12:44:37.410Z,2416.00
2022-08-11T12:45:31.376Z,2340.00
2022-08-11T12:46:31.371Z,2304.00
2022-08-11T12:47:31.360Z,2304.00
2022-08-11T12:48:57.401Z,2252.00
2022-08-11T12:49:32.338Z,2216.00
2022-08-11T12:50:31.322Z,2144.00
2022-08-11T12:51:31.312Z,2180.00
2022-08-11T12:52:32.304Z,2192.00
2022-08-11T12:53:31.302Z,2160.00
2022-08-11T12:54:31.284Z,2164.00
2022-08-11T12:55:36.297Z,2100.00
2022-08-11T12:56:31.263Z,2076.00
2022-08-11T12:57:37.185Z,2116.00
2022-08-11T12:58:32.247Z,2044.00
2022-08-11T12:59:31.231Z,2104.00
2022-08-11T13:00:31.427Z,2116.00
2022-08-11T13:01:31.335Z,2104.00
2022-08-11T13:02:31.200Z,2056.00
2022-08-11T13:03:31.200Z,2012.00
2022-08-11T13:04:31.178Z,2024.00
2022-08-11T13:05:31.175Z,2044.00
2022-08-11T13:06:36.177Z,2012.00
2022-08-11T13:07:50.611Z,1996.00
2022-08-11T13:08:32.168Z,1824.00
2022-08-11T13:09:31.125Z,1892.00
2022-08-11T13:10:31.120Z,1940.00
2022-08-11T13:11:56.743Z,1960.00
2022-08-11T13:12:32.092Z,1908.00
2022-08-11T13:13:55.698Z,2012.00
2022-08-11T13:14:32.070Z,2012.00
2022-08-11T13:15:31.062Z,2052.00
2022-08-11T13:16:31.053Z,2060.00
2022-08-11T13:17:44.145Z,2072.00
2022-08-11T13:18:32.042Z,2084.00
2022-08-11T13:19:36.041Z,2052.00
2022-08-11T13:20:31.032Z,2048.00
2022-08-11T13:21:31.035Z,2000.00
2022-08-11T13:22:32.635Z,1980.00
2022-08-11T13:23:30.986Z,1932.00
2022-08-11T13:24:30.966Z,1944.00
2022-08-11T13:25:30.956Z,1956.00
2022-08-11T13:26:48.042Z,1940.00
2022-08-11T13:27:31.940Z,1960.00
2022-08-11T13:28:30.939Z,1972.00
2022-08-11T13:29:30.914Z,2004.00
2022-08-11T13:30:32.625Z,2052.00
2022-08-11T13:31:30.894Z,2036.00
2022-08-11T13:32:35.902Z,2056.00
2022-08-11T13:33:30.911Z,2088.00
2022-08-11T13:34:30.887Z,2112.00
2022-08-11T13:35:30.853Z,2080.00
2022-08-11T13:36:30.837Z,2128.00
2022-08-11T13:38:17.486Z,2116.00
2022-08-11T13:38:32.230Z,1996.00
2022-08-11T13:39:30.966Z,1924.00
2022-08-11T13:40:45.861Z,1952.00
2022-08-11T13:41:31.784Z,1952.00
2022-08-11T13:42:30.774Z,1888.00
2022-08-11T13:43:30.787Z,1860.00
2022-08-11T13:44:30.751Z,1872.00
2022-08-11T13:45:35.780Z,1892.00
2022-08-11T13:46:30.755Z,1912.00
2022-08-11T13:47:30.746Z,1980.00
2022-08-11T13:48:30.708Z,1932.00
2022-08-11T13:49:30.714Z,1944.00
2022-08-11T13:50:30.690Z,1916.00
2022-08-11T13:51:34.760Z,1876.00
2022-08-11T13:52:30.670Z,1904.00
2022-08-11T13:53:30.659Z,1940.00
2022-08-11T13:54:30.663Z,1872.00
2022-08-11T13:55:45.121Z,1912.00
2022-08-11T13:56:31.626Z,1904.00
2022-08-11T13:58:08.423Z,1860.00
2022-08-11T13:58:40.454Z,1820.00
2022-08-11T13:59:31.401Z,1868.00
2022-08-11T14:00:30.605Z,1892.00
2022-08-11T14:02:21.286Z,1856.00
2022-08-11T14:02:31.717Z,1832.00
2022-08-11T14:04:30.204Z,1856.00
2022-08-11T14:04:32.221Z,1836.00
2022-08-11T14:05:30.529Z,1812.00
2022-08-11T14:06:30.518Z,1884.00
2022-08-11T14:07:30.507Z,1904.00
2022-08-11T14:08:37.854Z,1948.00
2022-08-11T14:09:31.496Z,1892.00
2022-08-11T14:10:30.477Z,1932.00
2022-08-11T14:12:23.700Z,1948.00
2022-08-11T14:12:31.480Z,1928.00
2022-08-11T14:13:41.209Z,1844.00
2022-08-11T14:14:31.444Z,1728.00
2022-08-11T14:15:30.421Z,1916.00
2022-08-11T14:16:30.411Z,1924.00
2022-08-11T14:17:47.038Z,1828.00
2022-08-11T14:18:31.391Z,1876.00
2022-08-11T14:19:30.387Z,1876.00
2022-08-11T14:20:38.224Z,1900.00
2022-08-11T14:21:31.356Z,1912.00
2022-08-11T14:22:30.348Z,1996.00
2022-08-11T14:23:30.335Z,1972.00
2022-08-11T14:24:35.361Z,1944.00
2022-08-11T14:25:59.352Z,2000.00
2022-08-11T14:26:31.337Z,1988.00
2022-08-11T14:27:46.059Z,1964.00
2022-08-11T14:28:43.805Z,1876.00
2022-08-11T14:29:31.283Z,1840.00
2022-08-11T14:30:30.259Z,1800.00
2022-08-11T14:31:30.249Z,1740.00
2022-08-11T14:32:30.239Z,1716.00
2022-08-11T14:33:58.844Z,1712.00
2022-08-11T14:34:31.265Z,1736.00
2022-08-11T14:35:30.205Z,1752.00
2022-08-11T14:36:30.194Z,1788.00
2022-08-11T14:37:35.205Z,1816.00
2022-08-11T14:38:30.197Z,1844.00
2022-08-11T14:39:30.240Z,1884.00
2022-08-11T14:40:31.824Z,1892.00
2022-08-11T14:41:30.141Z,1848.00
2022-08-11T14:42:30.134Z,1816.00
2022-08-11T14:44:02.770Z,1744.00
2022-08-11T14:44:31.120Z,1768.00
2022-08-11T14:45:58.425Z,1720.00
2022-08-11T14:47:30.076Z,1800.00
2022-08-11T14:48:30.156Z,1756.00
2022-08-11T14:49:30.064Z,1732.00
2022-08-11T14:50:35.071Z,1796.00
2022-08-11T14:51:30.061Z,1804.00
2022-08-11T14:52:30.048Z,1880.00
2022-08-11T14:53:30.011Z,1844.00
2022-08-11T14:54:30.013Z,1820.00
2022-08-11T14:55:29.990Z,1652.00
2022-08-11T14:56:29.980Z,1644.00
2022-08-11T14:57:54.259Z,1664.00
2022-08-11T14:58:30.959Z,1640.00
2022-08-11T14:59:29.957Z,1668.00
2022-08-11T15:00:29.972Z,1724.00
2022-08-11T15:01:30.053Z,1596.00
2022-08-11T15:02:29.919Z,1716.00
2022-08-11T15:03:34.930Z,1708.00
2022-08-11T15:04:29.919Z,1656.00
2022-08-11T15:05:30.919Z,1656.00
2022-08-11T15:06:29.873Z,1644.00
2022-08-11T15:07:30.080Z,1620.00
2022-08-11T15:08:29.853Z,1596.00
2022-08-11T15:09:29.852Z,1560.00
2022-08-11T15:10:29.886Z,1640.00
2022-08-11T15:11:29.820Z,1488.00
2022-08-11T15:12:32.687Z,1428.00
2022-08-11T15:13:29.797Z,1532.00
2022-08-11T15:14:29.790Z,1492.00
2022-08-11T15:15:29.787Z,1460.00
2022-08-11T15:16:34.795Z,1456.00
2022-08-11T15:17:30.862Z,1504.00
2022-08-11T15:18:30.771Z,1524.00
2022-08-11T15:19:29.733Z,1572.00
2022-08-11T15:20:30.747Z,1584.00
2022-08-11T15:21:29.711Z,1536.00
2022-08-11T15:22:29.705Z,1480.00
2022-08-11T15:23:29.688Z,1396.00
2022-08-11T15:24:31.158Z,1372.00
2022-08-11T15:25:29.677Z,1428.00
2022-08-11T15:26:29.658Z,1496.00
2022-08-11T15:27:29.795Z,1540.00
2022-08-11T15:28:29.639Z,1428.00
2022-08-11T15:29:34.646Z,1480.00
2022-08-11T15:30:32.833Z,1484.00
2022-08-11T15:31:29.627Z,1368.00
2022-08-11T15:32:29.594Z,1340.00
2022-08-11T15:33:29.585Z,1176.00
2022-08-11T15:34:29.585Z,1380.00
2022-08-11T15:35:38.956Z,1456.00
2022-08-11T15:36:30.555Z,1444.00
2022-08-11T15:37:29.721Z,1440.00
2022-08-11T15:38:29.530Z,1444.00
2022-08-11T15:39:29.559Z,1384.00
2022-08-11T15:40:31.978Z,1328.00
2022-08-11T15:41:29.497Z,1304.00
2022-08-11T15:42:34.545Z,1264.00
2022-08-11T15:43:29.562Z,1268.00
2022-08-11T15:45:00.615Z,1396.00
2022-08-11T15:45:30.461Z,1396.00
2022-08-11T15:46:29.459Z,1376.00
2022-08-11T15:47:29.503Z,1364.00
2022-08-11T15:48:29.430Z,1336.00
2022-08-11T15:50:12.040Z,1304.00
2022-08-11T15:50:30.410Z,1312.00
2022-08-11T15:51:29.393Z,1344.00
2022-08-11T15:52:29.378Z,1360.00
2022-08-11T15:53:29.366Z,1428.00
2022-08-11T15:54:29.357Z,1412.00
2022-08-11T15:55:34.380Z,1400.00
2022-08-11T15:56:29.368Z,1396.00
2022-08-11T15:57:29.383Z,1388.00
2022-08-11T15:58:30.317Z,1364.00
2022-08-11T15:59:42.397Z,1348.00
2022-08-11T16:00:30.294Z,1328.00
2022-08-11T16:01:29.351Z,1284.00
2022-08-11T16:02:29.300Z,1228.00
2022-08-11T16:03:54.375Z,1196.00
2022-08-11T16:04:30.252Z,1156.00
2022-08-11T16:05:45.930Z,1204.00
2022-08-11T16:06:30.239Z,1248.00
2022-08-11T16:07:29.243Z,1272.00
2022-08-11T16:08:34.305Z,1276.00
2022-08-11T16:09:29.194Z,1252.00